Time;durP1;ratioP1;P1;durP2;ratioP2;P2;SDS_P1;SDS_P2;PMS_P1;PMS_P2;Temp;Humidity;BMP_temperature;BMP_pressure;BME280_temperature;BME280_humidity;BME280_pressure;Samples;Min_cycle;Max_cycle;Signal;HPM_P1;HPM_P2
2022/06/20 00:02:02;;;;;;;4.75;2.97;;;;;;;23.89;42.85;98427.16;5125933;28;20043;-68
2022/06/20 00:04:31;;;;;;;3.90;2.67;;;;;;;23.81;43.33;98423.75;5125825;28;20323;-68
2022/06/20 00:06:58;;;;;;;5.43;2.65;;;;;;;23.73;43.13;98424.69;5125990;28;20059;-69
2022/06/20 00:09:25;;;;;;;3.60;2.80;;;;;;;23.78;43.11;98430.38;5125930;28;20059;-69
2022/06/20 00:11:52;;;;;;;4.35;2.50;;;;;;;23.77;43.13;98431.41;5125700;28;20057;-68
2022/06/20 00:14:22;;;;;;;3.40;2.45;;;;;;;23.77;43.10;98428.69;5126020;28;20055;-68
2022/06/20 00:16:49;;;;;;;5.00;2.60;;;;;;;23.78;43.15;98422.25;5125692;28;20063;-68
2022/06/20 00:19:17;;;;;;;4.10;2.63;;;;;;;23.46;43.33;98382.16;5125864;28;20062;-69
2022/06/20 00:21:45;;;;;;;5.35;3.22;;;;;;;23.65;43.61;98417.53;5126194;28;20044;-69
2022/06/20 00:24:13;;;;;;;4.75;2.88;;;;;;;23.63;43.40;98416.88;5125805;28;20063;-69
2022/06/20 00:26:40;;;;;;;4.57;2.67;;;;;;;23.65;43.51;98408.59;5125573;28;20125;-68
2022/06/20 00:29:09;;;;;;;5.43;3.13;;;;;;;23.64;43.48;98413.16;5126281;28;20054;-69
2022/06/20 00:31:36;;;;;;;4.28;3.42;;;;;;;23.57;43.64;98406.81;5125546;28;20055;-68
2022/06/20 00:34:03;;;;;;;4.35;3.42;;;;;;;23.07;43.85;98339.22;5125809;28;20055;-69
2022/06/20 00:36:31;;;;;;;4.55;4.03;;;;;;;23.55;43.68;98411.59;5125393;28;20059;-69
2022/06/20 00:38:59;;;;;;;10.18;7.65;;;;;;;23.43;43.67;98391.47;5125735;28;20104;-69
2022/06/20 00:41:30;;;;;;;9.27;6.45;;;;;;;23.62;43.48;98423.31;5125663;28;20058;-69
2022/06/20 00:43:58;;;;;;;9.75;6.40;;;;;;;23.51;43.72;98421.13;5125682;28;20063;-69
2022/06/20 00:46:32;;;;;;;6.93;6.10;;;;;;;23.57;44.03;98412.25;5129402;28;20052;-69
2022/06/20 00:49:06;;;;;;;6.75;4.63;;;;;;;23.59;43.89;98423.69;5129883;28;20060;-69
2022/06/20 00:51:39;;;;;;;6.47;4.43;;;;;;;23.56;43.92;98407.84;5129543;27;20048;-69
2022/06/20 00:54:14;;;;;;;6.53;3.20;;;;;;;23.59;43.99;98404.78;5129504;28;20052;-69
2022/06/20 00:56:50;;;;;;;5.68;3.50;;;;;;;23.58;44.11;98402.25;5129448;27;20207;-69
2022/06/20 00:59:24;;;;;;;6.38;3.13;;;;;;;23.54;43.97;98390.97;5129351;28;20055;-69
2022/06/20 01:01:52;;;;;;;4.05;2.75;;;;;;;23.55;44.16;98389.97;5129345;28;20059;-69
2022/06/20 01:04:27;;;;;;;4.57;2.97;;;;;;;23.55;44.42;98392.66;5129109;28;20055;-69
2022/06/20 01:06:58;;;;;;;4.03;2.65;;;;;;;23.56;44.29;98397.03;5128945;28;20055;-69
2022/06/20 01:09:30;;;;;;;5.43;3.35;;;;;;;23.56;44.51;98412.44;5129199;28;20207;-69
2022/06/20 01:12:02;;;;;;;6.35;4.93;;;;;;;23.51;44.57;98388.66;5129136;28;20052;-69
2022/06/20 01:14:33;;;;;;;8.00;5.88;;;;;;;23.53;44.67;98391.19;5128884;27;20065;-68
2022/06/20 01:17:05;;;;;;;5.82;3.80;;;;;;;23.51;44.92;98390.53;5129089;28;20055;-68
2022/06/20 01:19:45;;;;;;;5.72;3.88;;;;;;;23.44;45.41;98390.44;5128941;28;20222;-68
2022/06/20 01:22:25;;;;;;;4.72;3.28;;;;;;;23.45;45.66;98389.41;5128962;28;20048;-68
2022/06/20 01:25:05;;;;;;;3.67;2.90;;;;;;;23.46;45.55;98384.84;5128898;27;20056;-68
2022/06/20 01:27:39;;;;;;;4.30;3.25;;;;;;;23.46;45.63;98388.38;5128462;27;20058;-68
2022/06/20 01:30:08;;;;;;;4.68;3.60;;;;;;;23.34;45.68;98379.94;5128408;28;20052;-68
2022/06/20 01:32:37;;;;;;;4.85;2.90;;;;;;;22.99;45.77;98305.03;5128572;28;20052;-68
2022/06/20 01:35:10;;;;;;;4.43;3.13;;;;;;;23.23;46.95;98377.69;5128626;28;20055;-68
2022/06/20 01:37:40;;;;;;;4.03;3.17;;;;;;;23.14;46.54;98383.38;5128667;28;20066;-69
2022/06/20 01:40:12;;;;;;;4.30;3.05;;;;;;;23.27;46.46;98378.19;5128513;28;20063;-69
2022/06/20 01:42:42;;;;;;;6.43;3.20;;;;;;;23.28;46.60;98379.84;5128195;28;20323;-69
2022/06/20 01:47:54;;;;;;;6.10;3.28;;;;;;;23.27;46.58;98380.88;5127751;28;20307;-69
2022/06/20 01:50:22;;;;;;;4.80;4.05;;;;;;;23.32;46.46;98381.16;5127892;27;20052;-69
2022/06/20 01:52:50;;;;;;;9.75;8.20;;;;;;;23.29;46.85;98384.22;5128301;28;20052;-69
2022/06/20 01:55:21;;;;;;;8.68;7.15;;;;;;;23.31;46.79;98385.72;5128155;28;20055;-68
2022/06/20 01:57:53;;;;;;;7.63;6.35;;;;;;;23.26;47.36;98381.88;5127930;28;20059;-69
2022/06/20 02:00:23;;;;;;;5.95;5.07;;;;;;;23.07;48.03;98382.44;5128127;28;20290;-69
2022/06/20 02:02:54;;;;;;;6.53;4.80;;;;;;;23.16;47.18;98373.22;5128146;28;20056;-69
2022/06/20 02:05:25;;;;;;;4.85;4.25;;;;;;;23.15;47.77;98369.69;5127725;28;20055;-68
2022/06/20 02:07:55;;;;;;;5.78;3.97;;;;;;;23.14;47.90;98373.41;5127984;28;20055;-69
2022/06/20 02:10:27;;;;;;;5.63;3.30;;;;;;;23.14;47.76;98384.22;5127721;28;20121;-69
2022/06/20 02:12:59;;;;;;;3.85;3.03;;;;;;;23.11;48.15;98386.47;5127864;28;20204;-69
2022/06/20 02:15:28;;;;;;;6.35;3.85;;;;;;;22.72;48.74;98368.66;5127619;28;20059;-69
2022/06/20 02:17:56;;;;;;;8.27;4.50;;;;;;;22.93;47.89;98376.03;5127713;28;20043;-69
2022/06/20 02:20:28;;;;;;;6.25;3.95;;;;;;;22.99;48.00;98378.81;5127374;28;20047;-69
2022/06/20 02:22:58;;;;;;;7.10;5.00;;;;;;;22.79;48.99;98375.00;5127791;28;20063;-69
2022/06/20 02:25:31;;;;;;;6.70;4.78;;;;;;;22.87;48.59;98382.19;5127715;27;20047;-69
2022/06/20 02:28:05;;;;;;;4.18;3.67;;;;;;;22.76;48.95;98380.78;5127655;28;20048;-69
2022/06/20 02:30:32;;;;;;;5.03;3.28;;;;;;;22.80;48.48;98379.38;5127471;28;20330;-68
2022/06/20 02:33:08;;;;;;;4.57;3.50;;;;;;;22.38;48.44;98298.94;5127502;28;20065;-69
2022/06/20 02:35:36;;;;;;;5.20;3.63;;;;;;;22.86;48.80;98381.34;5126992;28;20052;-68
2022/06/20 02:38:03;;;;;;;5.93;3.35;;;;;;;22.85;48.41;98373.44;5127421;28;20177;-69
2022/06/20 02:40:31;;;;;;;4.95;3.67;;;;;;;22.87;48.25;98376.78;5127255;27;20055;-69
2022/06/20 02:43:05;;;;;;;6.90;3.60;;;;;;;22.83;48.81;98381.72;5127320;28;20326;-69
2022/06/20 02:45:34;;;;;;;3.08;2.72;;;;;;;22.77;48.44;98385.16;5127067;28;20052;-69
2022/06/20 02:48:05;;;;;;;3.80;3.10;;;;;;;22.77;48.86;98387.03;5127256;28;20056;-69
2022/06/20 02:50:37;;;;;;;3.80;3.15;;;;;;;22.71;48.93;98388.59;5127206;28;20195;-68
2022/06/20 02:53:06;;;;;;;4.95;3.50;;;;;;;22.74;48.68;98380.13;5126839;28;20055;-69
2022/06/20 02:55:36;;;;;;;9.50;5.03;;;;;;;22.74;48.64;98377.44;5127370;28;20048;-68
2022/06/20 02:58:11;;;;;;;5.82;4.85;;;;;;;20.83;49.20;98076.56;5126708;28;20070;-69
2022/06/20 03:00:50;;;;;;;5.15;4.20;;;;;;;22.67;49.32;98379.19;5126644;28;20062;-69
2022/06/20 03:03:23;;;;;;;5.05;4.28;;;;;;;22.64;49.26;98380.41;5126662;28;20056;-68
2022/06/20 03:05:50;;;;;;;5.63;4.00;;;;;;;22.59;49.15;98373.88;5126921;28;20070;-69
2022/06/20 03:08:18;;;;;;;7.45;4.70;;;;;;;22.53;49.29;98372.72;5126078;28;20056;-69
2022/06/20 03:10:48;;;;;;;5.07;3.85;;;;;;;22.52;49.72;98375.59;5126810;28;20311;-69
2022/06/20 03:13:17;;;;;;;4.35;3.50;;;;;;;22.53;49.58;98382.69;5126806;28;20051;-68
2022/06/20 03:15:45;;;;;;;4.18;3.17;;;;;;;22.42;49.68;98381.28;5126391;28;20047;-68
2022/06/20 03:18:16;;;;;;;6.80;3.97;;;;;;;22.46;49.71;98382.56;5126506;28;20055;-68
2022/06/20 03:20:44;;;;;;;7.28;2.97;;;;;;;22.44;50.02;98386.47;5126129;28;20066;-69
2022/06/20 03:23:17;;;;;;;9.73;3.63;;;;;;;22.40;50.21;98384.16;5126226;27;20055;-69
2022/06/20 03:25:45;;;;;;;7.00;3.58;;;;;;;22.27;50.03;98374.97;5126197;28;20056;-69
2022/06/20 03:28:14;;;;;;;6.45;3.70;;;;;;;22.12;50.41;98363.28;5126528;28;20055;-69
2022/06/20 03:30:43;;;;;;;4.93;3.20;;;;;;;22.21;50.07;98375.69;5126067;27;20315;-68
2022/06/20 03:33:14;;;;;;;4.45;2.95;;;;;;;22.14;50.94;98382.84;5126467;28;20055;-69
2022/06/20 03:35:44;;;;;;;4.05;3.20;;;;;;;21.67;50.70;98308.34;5126147;28;20055;-69
2022/06/20 03:38:14;;;;;;;4.38;3.42;;;;;;;22.00;51.13;98376.38;5126233;28;20319;-69
2022/06/20 03:40:43;;;;;;;6.05;3.90;;;;;;;22.00;50.66;98369.13;5126265;28;20342;-69
2022/06/20 03:43:14;;;;;;;4.85;3.63;;;;;;;21.90;51.44;98373.09;5126281;28;20297;-69
2022/06/20 03:45:48;;;;;;;4.20;3.80;;;;;;;21.85;51.86;98380.88;5125914;28;20059;-68
2022/06/20 03:48:19;;;;;;;5.40;3.78;;;;;;;21.78;51.43;98378.88;5125978;28;20062;-69
2022/06/20 03:50:53;;;;;;;4.82;3.95;;;;;;;21.87;51.71;98384.22;5125903;28;20323;-69
2022/06/20 03:53:23;;;;;;;;;;;;;;;21.68;52.69;98382.81;5126581;28;20312;-69
2022/06/20 03:55:56;;;;;;;5.35;3.70;;;;;;;21.76;51.67;98385.44;5126040;28;19923;-71
2022/06/20 03:58:29;;;;;;;6.68;3.42;;;;;;;21.53;52.67;98393.53;5125892;28;20228;-69
2022/06/20 04:01:03;;;;;;;7.35;4.25;;;;;;;21.60;52.18;98393.66;5126001;28;20055;-68
2022/06/20 04:03:35;;;;;;;5.65;4.60;;;;;;;21.53;52.44;98388.13;5125814;28;20055;-69
2022/06/20 04:06:07;;;;;;;5.90;4.55;;;;;;;21.55;52.60;98394.19;5125961;28;20346;-69
2022/06/20 04:11:33;;;;;;;5.07;3.78;;;;;;;21.51;52.40;98390.16;5126249;28;20286;-69
2022/06/20 04:14:06;;;;;;;6.20;3.42;;;;;;;21.62;52.22;98395.16;5126068;28;20052;-69
2022/06/20 04:16:40;;;;;;;5.40;4.07;;;;;;;21.66;52.50;98387.53;5126071;28;20062;-69
2022/06/20 04:19:13;;;;;;;6.75;3.63;;;;;;;21.45;52.76;98389.00;5126515;28;20062;-70
2022/06/20 04:21:47;;;;;;;7.87;4.43;;;;;;;21.51;52.67;98390.16;5130313;28;20051;-69
2022/06/20 04:24:21;;;;;;;3.88;3.38;;;;;;;21.51;52.05;98389.31;5129781;28;20126;-70
2022/06/20 04:26:54;;;;;;;4.30;3.42;;;;;;;21.52;52.48;98397.22;5129745;28;20059;-69
2022/06/20 04:29:27;;;;;;;4.25;3.63;;;;;;;21.51;53.06;98406.34;5129587;28;20071;-69
2022/06/20 04:32:01;;;;;;;4.75;3.50;;;;;;;21.60;52.82;98394.50;5129888;28;20073;-69
2022/06/20 04:34:32;;;;;;;;;;;;;;;21.44;53.59;98403.50;5130056;28;20219;-69
2022/06/20 04:37:04;;;;;;;4.68;3.22;;;;;;;21.58;52.58;98403.78;5130090;28;19915;-68
2022/06/20 04:39:40;;;;;;;5.18;3.95;;;;;;;21.48;52.81;98406.69;5129674;28;20059;-68
2022/06/20 04:42:14;;;;;;;4.45;3.50;;;;;;;21.58;52.51;98418.09;5129620;28;20207;-68
2022/06/20 04:44:49;;;;;;;5.07;3.65;;;;;;;21.62;52.77;98419.41;5129695;28;20047;-69
2022/06/20 04:47:28;;;;;;;5.55;4.63;;;;;;;21.71;52.55;98418.34;5129459;28;20047;-69
2022/06/20 04:49:56;;;;;;;4.30;3.67;;;;;;;21.74;52.05;98414.47;5129152;28;20056;-69
2022/06/20 04:52:26;;;;;;;6.20;3.85;;;;;;;21.75;52.21;98422.38;5129104;27;20044;-69
2022/06/20 04:54:55;;;;;;;5.07;3.97;;;;;;;21.68;52.15;98420.56;5129453;28;20204;-69
2022/06/20 04:57:23;;;;;;;4.82;3.42;;;;;;;21.72;52.18;98414.63;5128962;28;20133;-69
2022/06/20 04:59:58;;;;;;;4.25;3.85;;;;;;;21.77;51.87;98417.63;5129279;28;20059;-69
2022/06/20 05:02:27;;;;;;;4.18;3.65;;;;;;;21.75;52.17;98413.44;5129124;27;20058;-68
2022/06/20 05:04:59;;;;;;;5.45;3.65;;;;;;;21.81;51.80;98420.84;5129097;28;20047;-70
2022/06/20 05:07:30;;;;;;;5.38;3.75;;;;;;;21.77;52.49;98420.34;5129186;28;20283;-69
2022/06/20 05:10:04;;;;;;;4.72;4.13;;;;;;;21.78;52.49;98419.31;5129075;27;20208;-69
2022/06/20 05:12:39;;;;;;;5.75;4.20;;;;;;;21.78;52.81;98422.00;5129035;28;20339;-69
2022/06/20 05:15:08;;;;;;;;;;;;;;;21.63;53.30;98428.34;5129359;28;20047;-69
2022/06/20 05:17:39;;;;;;;5.03;4.03;;;;;;;21.77;52.80;98414.94;5129001;28;19942;-69
2022/06/20 05:20:10;;;;;;;6.82;4.10;;;;;;;21.83;52.10;98417.97;5128699;28;20070;-69
2022/06/20 05:22:44;;;;;;;10.95;4.68;;;;;;;21.88;52.60;98411.03;5128688;28;20312;-69
2022/06/20 05:25:17;;;;;;;6.18;4.50;;;;;;;21.76;52.82;98412.41;5128878;28;20063;-69
2022/06/20 05:27:49;;;;;;;6.28;4.38;;;;;;;21.56;53.34;98413.88;5128512;28;20058;-68
2022/06/20 05:30:19;;;;;;;6.80;4.20;;;;;;;21.60;52.97;98404.44;5128216;28;20047;-68
2022/06/20 05:32:57;;;;;;;5.18;4.03;;;;;;;21.73;53.27;98408.22;5128885;28;20043;-69
2022/06/20 05:35:29;;;;;;;5.28;4.50;;;;;;;21.82;52.49;98409.03;5128606;28;20047;-69
2022/06/20 05:38:03;;;;;;;8.52;5.53;;;;;;;21.78;53.02;98413.09;5128524;28;20058;-69
2022/06/20 05:40:37;;;;;;;6.68;4.25;;;;;;;21.72;53.08;98408.41;5128808;28;20215;-69
2022/06/20 05:43:06;;;;;;;5.57;4.90;;;;;;;21.50;53.60;98395.72;5128471;28;20066;-69
2022/06/20 05:45:33;;;;;;;6.45;5.00;;;;;;;21.59;53.09;98419.78;5128333;28;20048;-69
2022/06/20 05:48:06;;;;;;;4.35;3.83;;;;;;;21.76;53.02;98409.72;5128409;28;20058;-70
2022/06/20 05:50:47;;;;;;;4.72;4.00;;;;;;;21.89;53.50;98410.00;5127918;27;20048;-69
2022/06/20 05:53:24;;;;;;;8.02;3.95;;;;;;;21.97;52.81;98414.50;5128309;28;20330;-69
2022/06/20 05:55:54;;;;;;;4.60;4.13;;;;;;;21.37;52.41;98326.22;5127887;28;20081;-69
2022/06/20 05:58:25;;;;;;;4.93;4.25;;;;;;;21.95;52.45;98398.50;5127787;28;20307;-69
2022/06/20 06:00:55;;;;;;;4.90;4.18;;;;;;;19.64;52.89;98016.00;5128159;28;20215;-69
2022/06/20 06:03:30;;;;;;;7.60;4.45;;;;;;;22.03;52.67;98397.59;5127817;28;20044;-69
2022/06/20 06:06:02;;;;;;;5.97;4.30;;;;;;;22.01;52.39;98394.25;5127562;28;20047;-69
2022/06/20 06:08:38;;;;;;;6.45;4.20;;;;;;;22.08;52.78;98392.50;5127798;28;20047;-69
2022/06/20 06:11:12;;;;;;;6.43;5.57;;;;;;;22.17;52.48;98390.56;5127892;27;20342;-69
2022/06/20 06:13:46;;;;;;;6.55;5.43;;;;;;;22.09;52.64;98395.00;5127909;28;20052;-69
2022/06/20 06:19:17;;;;;;;6.43;4.72;;;;;;;21.95;53.67;98395.81;5127924;28;20058;-69
2022/06/20 06:21:47;;;;;;;8.70;5.80;;;;;;;22.06;52.78;98392.69;5127651;28;20070;-68
2022/06/20 06:24:20;;;;;;;7.22;5.15;;;;;;;22.19;52.73;98389.38;5127210;27;20349;-68
2022/06/20 06:26:49;;;;;;;9.52;6.10;;;;;;;21.60;52.71;98299.28;5127481;27;20058;-69
2022/06/20 06:29:20;;;;;;;8.60;5.85;;;;;;;22.25;52.64;98383.25;5127226;28;20051;-69
2022/06/20 06:31:51;;;;;;;8.70;6.68;;;;;;;22.20;52.55;98374.84;5127496;28;20056;-69
2022/06/20 06:34:27;;;;;;;7.88;6.20;;;;;;;22.28;53.01;98382.88;5127012;28;20051;-68
2022/06/20 06:36:59;;;;;;;9.27;6.63;;;;;;;22.35;52.19;98380.28;5127335;28;20058;-69
2022/06/20 06:39:32;;;;;;;7.03;6.25;;;;;;;22.27;52.99;98381.19;5127353;28;20055;-69
2022/06/20 06:42:04;;;;;;;7.30;6.23;;;;;;;22.32;52.81;98383.34;5126100;27;20055;-69
2022/06/20 06:44:36;;;;;;;9.23;5.90;;;;;;;22.44;52.05;98384.63;5127118;27;20220;-69
2022/06/20 06:47:04;;;;;;;8.00;6.30;;;;;;;22.44;52.22;98381.09;5127225;28;20055;-69
2022/06/20 06:49:40;;;;;;;9.65;5.93;;;;;;;22.51;52.23;98366.66;5127063;28;20056;-69
2022/06/20 06:52:14;;;;;;;10.95;7.05;;;;;;;22.50;52.59;98369.53;5127051;28;20051;-68
2022/06/20 06:54:49;;;;;;;;;;;;;;;22.46;52.75;98371.78;5127520;28;20311;-69
2022/06/20 06:57:25;;;;;;;8.13;5.70;;;;;;;22.61;52.07;98371.84;5126546;27;19916;-69
2022/06/20 07:00:14;;;;;;;6.90;6.20;;;;;;;22.76;52.30;98358.34;5126893;28;20058;-69
2022/06/20 07:02:46;;;;;;;11.88;6.13;;;;;;;22.78;52.29;98367.09;5126395;28;20055;-69
2022/06/20 07:05:23;;;;;;;8.52;6.20;;;;;;;22.92;52.02;98360.84;5126791;28;20055;-69
2022/06/20 07:07:54;;;;;;;6.82;5.90;;;;;;;22.93;51.78;98351.72;5126731;28;20311;-69
2022/06/20 07:10:27;;;;;;;8.23;6.28;;;;;;;23.10;51.47;98350.50;5126690;28;20052;-69
2022/06/20 07:13:02;;;;;;;7.70;5.77;;;;;;;23.19;51.29;98348.50;5126305;28;20200;-69
2022/06/20 07:15:30;;;;;;;10.73;6.57;;;;;;;23.28;51.16;98345.53;5126287;28;20058;-69
2022/06/20 07:17:59;;;;;;;8.02;5.53;;;;;;;23.40;50.74;98345.06;5126522;28;20047;-69
2022/06/20 07:20:32;;;;;;;7.97;5.13;;;;;;;23.49;50.56;98338.50;5126827;28;20330;-68
2022/06/20 07:23:03;;;;;;;7.68;5.60;;;;;;;23.55;50.54;98335.03;5126002;28;20048;-69
2022/06/20 07:25:35;;;;;;;8.25;5.90;;;;;;;23.78;50.47;98332.97;5126048;28;20067;-69
2022/06/20 07:28:10;;;;;;;7.88;5.68;;;;;;;23.81;49.79;98338.00;5126445;28;20047;-69
2022/06/20 07:30:41;;;;;;;11.10;5.15;;;;;;;23.81;50.02;98342.56;5126141;28;20055;-69
2022/06/20 07:33:17;;;;;;;8.98;4.93;;;;;;;23.88;50.13;98336.19;5126388;28;20066;-69
2022/06/20 07:35:50;;;;;;;7.80;5.45;;;;;;;24.07;49.68;98329.31;5126142;28;20047;-69
2022/06/20 07:38:22;;;;;;;7.63;5.07;;;;;;;24.24;49.34;98338.00;5125854;28;20311;-69
2022/06/20 07:40:53;;;;;;;6.95;5.32;;;;;;;24.25;49.00;98343.22;5126220;28;20047;-68
2022/06/20 07:43:25;;;;;;;8.07;5.20;;;;;;;24.34;49.03;98335.78;5126150;28;20051;-69
2022/06/20 07:45:55;;;;;;;5.85;5.25;;;;;;;24.50;48.55;98332.78;5125960;28;20058;-69
2022/06/20 07:48:29;;;;;;;8.55;4.80;;;;;;;24.73;48.39;98334.41;5125741;28;20066;-68
2022/06/20 07:51:02;;;;;;;6.72;4.93;;;;;;;24.88;48.38;98333.25;5125850;28;20066;-69
2022/06/20 07:53:35;;;;;;;5.40;4.82;;;;;;;24.73;48.04;98275.63;5125929;28;20051;-69
2022/06/20 07:56:10;;;;;;;5.78;5.05;;;;;;;25.37;47.27;98332.28;5125868;28;20043;-69
2022/06/20 07:58:43;;;;;;;6.68;4.90;;;;;;;25.35;47.17;98325.38;5125355;28;20055;-69
2022/06/20 08:01:17;;;;;;;7.15;4.30;;;;;;;25.52;47.05;98319.38;5125897;28;20058;-69
2022/06/20 08:03:51;;;;;;;7.05;4.82;;;;;;;25.64;46.97;98313.34;5125923;28;20058;-69
2022/06/20 08:06:22;;;;;;;;;;;;;;;25.82;46.19;98311.69;5126198;28;20063;-69
2022/06/20 08:08:56;;;;;;;4.55;4.07;;;;;;;25.92;45.94;98301.28;5125654;28;19916;-69
2022/06/20 08:11:43;;;;;;;5.70;5.10;;;;;;;25.88;46.97;98300.03;5125907;28;20074;-69
2022/06/20 08:14:19;;;;;;;8.75;4.97;;;;;;;26.23;45.91;98303.38;5125609;28;20055;-69
2022/06/20 08:16:50;;;;;;;5.38;4.88;;;;;;;26.45;45.15;98303.16;5125906;28;20047;-69
2022/06/20 08:19:17;;;;;;;5.50;4.90;;;;;;;26.56;45.05;98291.63;5125907;28;20051;-69
2022/06/20 08:21:53;;;;;;;5.45;4.93;;;;;;;26.69;45.28;98305.22;5125712;28;20117;-69
2022/06/20 08:24:26;;;;;;;5.30;4.80;;;;;;;26.56;45.50;98310.66;5125692;28;20052;-69
2022/06/20 08:26:58;;;;;;;7.30;5.03;;;;;;;26.76;45.16;98307.94;5125738;28;20051;-69
2022/06/20 08:29:34;;;;;;;7.68;4.80;;;;;;;26.60;45.09;98316.50;5125853;28;20047;-69
2022/06/20 08:32:11;;;;;;;5.28;4.75;;;;;;;26.75;45.13;98317.97;5125814;28;20058;-70
2022/06/20 08:34:45;;;;;;;5.93;4.88;;;;;;;26.97;45.10;98307.66;5125666;28;20324;-69
2022/06/20 08:37:21;;;;;;;7.22;4.53;;;;;;;27.11;44.68;98305.72;5125501;28;20315;-69
2022/06/20 08:39:54;;;;;;;6.30;4.93;;;;;;;27.21;44.68;98307.97;5125495;28;20235;-69
2022/06/20 08:42:54;;;;;;;5.30;4.80;;;;;;;27.26;44.43;98291.88;5125441;28;20204;-70
2022/06/20 08:45:43;;;;;;;6.32;5.07;;;;;;;27.26;44.40;98297.31;5125187;28;20063;-69
2022/06/20 08:48:40;;;;;;;6.65;5.53;;;;;;;27.36;44.49;98300.41;5125331;28;20060;-69
2022/06/20 08:51:42;;;;;;;6.70;4.43;;;;;;;27.49;44.38;98297.59;5125569;28;20047;-69
2022/06/20 08:54:31;;;;;;;5.75;5.18;;;;;;;27.48;43.62;98268.72;5125508;28;20043;-69
2022/06/20 08:57:05;;;;;;;6.45;4.60;;;;;;;27.84;43.52;98283.63;5125303;28;20055;-70
2022/06/20 08:59:51;;;;;;;8.63;4.93;;;;;;;27.53;43.47;98213.66;5125376;28;20055;-69
2022/06/20 09:02:30;;;;;;;6.18;4.55;;;;;;;28.06;43.70;98272.13;5125498;28;20047;-69
2022/06/20 09:05:17;;;;;;;6.90;4.80;;;;;;;28.08;42.71;98263.72;5125399;28;20052;-69
2022/06/20 09:08:07;;;;;;;5.45;4.90;;;;;;;28.16;43.25;98281.69;5129076;27;20197;-69
2022/06/20 09:10:51;;;;;;;5.22;4.72;;;;;;;28.13;42.93;98283.78;5128709;28;20055;-69
2022/06/20 09:13:47;;;;;;;7.72;4.93;;;;;;;28.12;43.29;98276.69;5128907;28;20125;-69
2022/06/20 09:16:25;;;;;;;6.07;4.43;;;;;;;28.26;43.50;98279.28;5128915;28;20058;-70
2022/06/20 09:19:15;;;;;;;5.25;4.70;;;;;;;28.38;43.17;98278.31;5128930;28;20203;-70
2022/06/20 09:21:57;;;;;;;5.32;4.70;;;;;;;28.49;42.92;98276.78;5125220;28;20199;-70
2022/06/20 09:24:36;;;;;;;7.60;5.28;;;;;;;28.71;42.69;98277.16;5128338;28;20051;-70
2022/06/20 09:27:09;;;;;;;6.25;4.47;;;;;;;28.86;42.45;98269.44;5128485;28;20058;-70
2022/06/20 09:30:05;;;;;;;6.72;4.43;;;;;;;28.94;41.72;98265.56;5128259;28;20056;-69
2022/06/20 09:33:03;;;;;;;6.43;4.47;;;;;;;28.74;42.53;98274.81;5128595;28;20066;-69
2022/06/20 09:35:48;;;;;;;8.52;5.32;;;;;;;28.97;42.96;98267.84;5128554;28;20048;-70
2022/06/20 09:38:39;;;;;;;5.35;4.85;;;;;;;29.23;41.84;98262.06;5128225;28;20327;-70
2022/06/20 09:41:17;;;;;;;6.78;5.20;;;;;;;29.28;42.18;98258.66;5127917;28;20055;-69
2022/06/20 09:43:58;;;;;;;6.50;4.70;;;;;;;29.29;42.25;98271.22;5128240;28;20051;-70
2022/06/20 09:46:33;;;;;;;6.28;4.80;;;;;;;29.16;42.82;98277.69;5128046;28;20056;-69
2022/06/20 09:49:07;;;;;;;5.97;4.93;;;;;;;29.34;42.62;98287.75;5128745;27;20187;-69
2022/06/20 09:51:45;;;;;;;5.60;4.75;;;;;;;29.28;42.02;98300.41;5128050;28;20064;-70
2022/06/20 09:54:22;;;;;;;6.13;5.57;;;;;;;29.08;42.75;98340.75;5128064;28;20055;-70
2022/06/20 09:56:55;;;;;;;6.18;4.70;;;;;;;28.95;43.58;98387.22;5127581;27;20047;-70
2022/06/20 09:59:31;;;;;;;8.82;4.90;;;;;;;28.91;43.40;98386.84;5127709;28;20047;-69
2022/06/20 10:02:09;;;;;;;6.88;4.93;;;;;;;28.83;43.56;98368.06;5127904;28;20055;-69
2022/06/20 10:04:47;;;;;;;5.78;4.70;;;;;;;28.97;43.27;98388.69;5127681;28;20055;-70
2022/06/20 10:07:18;;;;;;;5.03;4.47;;;;;;;29.00;43.74;98381.94;5127734;28;20055;-70
2022/06/20 10:09:58;;;;;;;5.70;4.78;;;;;;;28.94;43.27;98391.84;5127780;28;20056;-69
2022/06/20 10:12:32;;;;;;;6.32;4.70;;;;;;;29.09;42.89;98391.53;5127817;28;20074;-69
2022/06/20 10:15:07;;;;;;;5.18;4.70;;;;;;;29.15;43.01;98374.25;5127516;28;20054;-70
2022/06/20 10:17:45;;;;;;;9.32;5.03;;;;;;;29.36;42.28;98376.50;5127111;28;20047;-70
2022/06/20 10:20:24;;;;;;;6.85;5.18;;;;;;;29.49;42.90;98385.59;5127641;28;20338;-69
2022/06/20 10:22:58;;;;;;;6.78;5.28;;;;;;;29.59;43.91;98394.94;5127581;28;20196;-70
2022/06/20 10:26:04;;;;;;;6.47;5.30;;;;;;;29.61;44.13;98414.66;5127495;28;20063;-70
2022/06/20 10:28:39;;;;;;;6.88;6.00;;;;;;;29.60;43.93;98412.97;5127537;28;20066;-70
2022/06/20 10:31:30;;;;;;;7.72;5.90;;;;;;;29.63;44.05;98414.41;5126978;28;20211;-70
2022/06/20 10:34:06;;;;;;;11.75;6.50;;;;;;;29.74;43.96;98426.47;5127208;28;20074;-70
2022/06/20 10:36:48;;;;;;;10.40;6.53;;;;;;;29.62;43.31;98426.41;5126944;28;20048;-69
2022/06/20 10:39:24;;;;;;;11.25;6.82;;;;;;;29.84;43.43;98413.09;5127075;28;20051;-70
2022/06/20 10:42:02;;;;;;;9.40;7.05;;;;;;;29.84;43.24;98426.75;5126778;28;20047;-70
2022/06/20 10:44:49;;;;;;;11.05;7.03;;;;;;;29.84;43.56;98429.47;5126951;28;20056;-70
2022/06/20 10:47:23;;;;;;;8.85;6.75;;;;;;;29.96;43.37;98433.09;5126646;28;20204;-70
2022/06/20 10:50:09;;;;;;;9.40;7.57;;;;;;;29.91;44.33;98455.63;5126660;28;20058;-70
2022/06/20 10:52:51;;;;;;;13.05;8.60;;;;;;;29.78;44.46;98446.78;5127060;28;20055;-70
2022/06/20 10:55:35;;;;;;;21.80;8.57;;;;;;;29.80;44.77;98442.75;5127095;28;20044;-69
2022/06/20 10:58:12;;;;;;;10.73;7.72;;;;;;;29.90;44.56;98418.47;5126705;28;20063;-69
2022/06/20 11:00:45;;;;;;;13.13;8.60;;;;;;;30.01;44.15;98438.69;5126732;28;20070;-69
2022/06/20 11:03:35;;;;;;;12.40;8.73;;;;;;;29.94;44.60;98433.31;5126875;28;20047;-70
2022/06/20 11:06:14;;;;;;;18.75;8.63;;;;;;;29.83;44.85;98439.56;5126192;28;20464;-70
2022/06/20 11:08:48;;;;;;;15.20;8.38;;;;;;;29.74;45.16;98435.50;5126286;28;20342;-70
2022/06/20 11:11:31;;;;;;;16.58;8.70;;;;;;;29.91;44.90;98443.88;5126304;28;20055;-70
2022/06/20 11:14:10;;;;;;;15.82;8.85;;;;;;;30.09;44.84;98430.16;5126787;28;20319;-69
2022/06/20 11:16:46;;;;;;;13.32;8.75;;;;;;;30.36;44.81;98418.91;5126024;28;20078;-70
2022/06/20 11:19:27;;;;;;;12.00;8.77;;;;;;;30.39;43.61;98440.31;5126072;28;20051;-70
2022/06/20 11:22:11;;;;;;;19.05;9.25;;;;;;;30.22;43.32;98454.63;5126501;28;20047;-70
2022/06/20 11:24:41;;;;;;;;;;;;;;;29.87;43.99;98453.59;5126993;27;20055;-70
2022/06/20 11:27:25;;;;;;;10.90;7.00;;;;;;;30.13;43.42;98449.66;5126538;28;19916;-70
2022/06/20 11:30:06;;;;;;;14.07;7.30;;;;;;;30.24;42.98;98438.84;5125877;28;20047;-70
2022/06/20 11:32:46;;;;;;;13.60;6.85;;;;;;;30.17;43.35;98442.69;5126081;28;20345;-70
2022/06/20 11:35:27;;;;;;;10.25;7.53;;;;;;;29.96;43.87;98431.19;5126296;28;20043;-70
2022/06/20 11:38:20;;;;;;;15.93;8.18;;;;;;;29.89;43.81;98441.38;5126284;28;20056;-70
2022/06/20 11:40:57;;;;;;;10.20;7.10;;;;;;;29.91;43.56;98432.94;5122801;28;20047;-71
2022/06/20 11:43:43;;;;;;;9.95;7.50;;;;;;;30.00;43.64;98446.06;5125958;28;20048;-70
2022/06/20 11:46:26;;;;;;;9.93;6.65;;;;;;;29.95;43.46;98451.38;5125734;27;20295;-71
2022/06/20 11:49:03;;;;;;;9.57;6.57;;;;;;;29.89;43.91;98455.03;5126242;28;20223;-70
2022/06/20 11:51:48;;;;;;;12.07;6.60;;;;;;;29.85;43.93;98448.38;5126170;28;20121;-71
2022/06/20 11:54:23;;;;;;;10.82;6.47;;;;;;;29.88;43.93;98452.53;5126110;28;20047;-70
2022/06/20 11:56:55;;;;;;;12.05;7.18;;;;;;;29.91;43.71;98446.59;5126061;28;20051;-70
2022/06/20 11:59:30;;;;;;;9.05;6.78;;;;;;;29.83;43.81;98436.00;5125755;28;20048;-70
2022/06/20 12:02:12;;;;;;;9.98;7.25;;;;;;;29.80;43.98;98436.47;5125947;28;20062;-71
2022/06/20 12:04:46;;;;;;;9.93;6.38;;;;;;;29.21;44.07;98348.78;5126145;28;20052;-70
2022/06/20 12:07:21;;;;;;;12.63;7.13;;;;;;;29.78;43.74;98428.50;5125637;28;20051;-70
2022/06/20 12:09:54;;;;;;;14.63;6.45;;;;;;;29.60;43.66;98426.63;5125903;28;20055;-70
2022/06/20 12:12:27;;;;;;;;;;;;;;;29.35;43.74;98439.50;5126149;28;20303;-70
2022/06/20 12:15:19;;;;;;;9.88;5.88;;;;;;;29.39;44.26;98463.38;5125864;28;19915;-70
2022/06/20 12:17:55;;;;;;;8.90;5.50;;;;;;;29.23;44.46;98488.53;5125494;28;20055;-70